sensor_id;sensor_type;location;lat;lon;timestamp;P1;durP1;ratioP1;P2;durP2;ratioP2
7657;SDS011;8462;53.156;8.220;2023-06-14T00:01:07;1.80;;;1.30;;
7657;SDS011;8462;53.156;8.220;2023-06-14T00:03:34;3.03;;;1.50;;
7657;SDS011;8462;53.156;8.220;2023-06-14T00:06:01;3.80;;;1.53;;
7657;SDS011;8462;53.156;8.220;2023-06-14T00:08:29;3.30;;;1.27;;
7657;SDS011;8462;53.156;8.220;2023-06-14T00:10:56;1.93;;;1.53;;
7657;SDS011;8462;53.156;8.220;2023-06-14T00:13:23;3.17;;;1.67;;
7657;SDS011;8462;53.156;8.220;2023-06-14T00:15:50;5.40;;;1.40;;
7657;SDS011;8462;53.156;8.220;2023-06-14T00:18:20;2.60;;;1.60;;
7657;SDS011;8462;53.156;8.220;2023-06-14T00:20:49;1.73;;;1.50;;
7657;SDS011;8462;53.156;8.220;2023-06-14T00:23:17;3.30;;;1.40;;
7657;SDS011;8462;53.156;8.220;2023-06-14T00:25:46;4.73;;;1.70;;
7657;SDS011;8462;53.156;8.220;2023-06-14T00:28:13;3.63;;;1.60;;
7657;SDS011;8462;53.156;8.220;2023-06-14T00:30:40;1.93;;;1.40;;
7657;SDS011;8462;53.156;8.220;2023-06-14T00:33:09;3.27;;;2.00;;
7657;SDS011;8462;53.156;8.220;2023-06-14T00:35:36;2.57;;;1.80;;
7657;SDS011;8462;53.156;8.220;2023-06-14T00:38:03;1.73;;;1.63;;
7657;SDS011;8462;53.156;8.220;2023-06-14T00:40:30;1.70;;;1.40;;
7657;SDS011;8462;53.156;8.220;2023-06-14T00:42:58;2.83;;;1.60;;
7657;SDS011;8462;53.156;8.220;2023-06-14T00:45:24;2.30;;;1.63;;
7657;SDS011;8462;53.156;8.220;2023-06-14T00:47:51;3.23;;;1.77;;
7657;SDS011;8462;53.156;8.220;2023-06-14T00:50:20;2.23;;;1.70;;
7657;SDS011;8462;53.156;8.220;2023-06-14T00:52:48;2.87;;;1.67;;
7657;SDS011;8462;53.156;8.220;2023-06-14T00:55:17;3.57;;;1.50;;
7657;SDS011;8462;53.156;8.220;2023-06-14T00:57:44;1.93;;;1.57;;
7657;SDS011;8462;53.156;8.220;2023-06-14T01:00:14;3.50;;;1.83;;
7657;SDS011;8462;53.156;8.220;2023-06-14T01:02:41;2.50;;;1.37;;
7657;SDS011;8462;53.156;8.220;2023-06-14T01:05:08;3.40;;;1.87;;
7657;SDS011;8462;53.156;8.220;2023-06-14T01:07:47;4.40;;;1.70;;
7657;SDS011;8462;53.156;8.220;2023-06-14T01:10:25;1.70;;;1.53;;
7657;SDS011;8462;53.156;8.220;2023-06-14T01:12:59;3.63;;;1.73;;
7657;SDS011;8462;53.156;8.220;2023-06-14T01:15:36;2.13;;;1.70;;
7657;SDS011;8462;53.156;8.220;2023-06-14T01:18:04;5.30;;;2.20;;
7657;SDS011;8462;53.156;8.220;2023-06-14T01:20:32;3.03;;;1.70;;
7657;SDS011;8462;53.156;8.220;2023-06-14T01:23:04;2.10;;;1.73;;
7657;SDS011;8462;53.156;8.220;2023-06-14T01:25:31;2.63;;;1.80;;
7657;SDS011;8462;53.156;8.220;2023-06-14T01:28:00;5.17;;;1.83;;
7657;SDS011;8462;53.156;8.220;2023-06-14T01:30:35;3.23;;;1.97;;
7657;SDS011;8462;53.156;8.220;2023-06-14T01:33:03;2.50;;;1.83;;
7657;SDS011;8462;53.156;8.220;2023-06-14T01:35:31;3.20;;;1.80;;
7657;SDS011;8462;53.156;8.220;2023-06-14T01:38:00;4.63;;;1.90;;
7657;SDS011;8462;53.156;8.220;2023-06-14T01:40:30;3.73;;;2.33;;
7657;SDS011;8462;53.156;8.220;2023-06-14T01:42:59;5.70;;;2.40;;
7657;SDS011;8462;53.156;8.220;2023-06-14T01:45:26;5.83;;;2.00;;
7657;SDS011;8462;53.156;8.220;2023-06-14T01:47:56;3.97;;;2.10;;
7657;SDS011;8462;53.156;8.220;2023-06-14T01:50:23;4.57;;;2.20;;
7657;SDS011;8462;53.156;8.220;2023-06-14T01:52:54;3.07;;;1.93;;
7657;SDS011;8462;53.156;8.220;2023-06-14T01:55:20;6.27;;;2.30;;
7657;SDS011;8462;53.156;8.220;2023-06-14T01:57:51;2.17;;;1.83;;
7657;SDS011;8462;53.156;8.220;2023-06-14T02:00:18;3.10;;;1.97;;
7657;SDS011;8462;53.156;8.220;2023-06-14T02:02:47;2.83;;;2.00;;
7657;SDS011;8462;53.156;8.220;2023-06-14T02:05:14;3.13;;;2.00;;
7657;SDS011;8462;53.156;8.220;2023-06-14T02:07:44;4.77;;;2.30;;
7657;SDS011;8462;53.156;8.220;2023-06-14T02:10:13;5.30;;;2.30;;
7657;SDS011;8462;53.156;8.220;2023-06-14T02:12:40;6.77;;;2.10;;
7657;SDS011;8462;53.156;8.220;2023-06-14T02:15:09;4.77;;;2.23;;
7657;SDS011;8462;53.156;8.220;2023-06-14T02:17:41;4.03;;;2.30;;
7657;SDS011;8462;53.156;8.220;2023-06-14T02:20:09;2.97;;;2.10;;
7657;SDS011;8462;53.156;8.220;2023-06-14T02:22:37;2.50;;;2.07;;
7657;SDS011;8462;53.156;8.220;2023-06-14T02:25:06;3.10;;;2.00;;
7657;SDS011;8462;53.156;8.220;2023-06-14T02:27:34;2.90;;;2.30;;
7657;SDS011;8462;53.156;8.220;2023-06-14T02:30:03;4.17;;;2.37;;
7657;SDS011;8462;53.156;8.220;2023-06-14T02:32:33;4.17;;;2.07;;
7657;SDS011;8462;53.156;8.220;2023-06-14T02:35:00;3.87;;;1.97;;
7657;SDS011;8462;53.156;8.220;2023-06-14T02:37:27;3.63;;;2.33;;
7657;SDS011;8462;53.156;8.220;2023-06-14T02:39:54;7.07;;;2.50;;
7657;SDS011;8462;53.156;8.220;2023-06-14T02:42:22;4.50;;;2.43;;
7657;SDS011;8462;53.156;8.220;2023-06-14T02:44:49;4.47;;;2.77;;
7657;SDS011;8462;53.156;8.220;2023-06-14T02:47:17;4.50;;;2.70;;
7657;SDS011;8462;53.156;8.220;2023-06-14T02:49:45;5.27;;;2.37;;
7657;SDS011;8462;53.156;8.220;2023-06-14T02:52:13;3.63;;;2.30;;
7657;SDS011;8462;53.156;8.220;2023-06-14T02:54:40;4.87;;;2.60;;
7657;SDS011;8462;53.156;8.220;2023-06-14T02:57:08;4.63;;;2.50;;
7657;SDS011;8462;53.156;8.220;2023-06-14T02:59:35;9.97;;;4.13;;
7657;SDS011;8462;53.156;8.220;2023-06-14T03:02:03;4.53;;;2.53;;
7657;SDS011;8462;53.156;8.220;2023-06-14T03:04:33;2.87;;;2.03;;
7657;SDS011;8462;53.156;8.220;2023-06-14T03:07:04;5.87;;;2.03;;
7657;SDS011;8462;53.156;8.220;2023-06-14T03:09:35;5.07;;;2.20;;
7657;SDS011;8462;53.156;8.220;2023-06-14T03:12:03;2.83;;;2.13;;
7657;SDS011;8462;53.156;8.220;2023-06-14T03:14:32;3.73;;;2.90;;
7657;SDS011;8462;53.156;8.220;2023-06-14T03:17:00;3.87;;;2.47;;
7657;SDS011;8462;53.156;8.220;2023-06-14T03:19:28;4.40;;;2.33;;
7657;SDS011;8462;53.156;8.220;2023-06-14T03:21:55;3.70;;;2.50;;
7657;SDS011;8462;53.156;8.220;2023-06-14T03:24:25;6.60;;;2.37;;
7657;SDS011;8462;53.156;8.220;2023-06-14T03:26:54;3.17;;;2.53;;
7657;SDS011;8462;53.156;8.220;2023-06-14T03:29:22;3.57;;;2.40;;
7657;SDS011;8462;53.156;8.220;2023-06-14T03:31:57;3.87;;;2.67;;
7657;SDS011;8462;53.156;8.220;2023-06-14T03:34:31;2.97;;;2.50;;
7657;SDS011;8462;53.156;8.220;2023-06-14T03:36:58;4.27;;;2.60;;
7657;SDS011;8462;53.156;8.220;2023-06-14T03:39:26;6.00;;;2.57;;
7657;SDS011;8462;53.156;8.220;2023-06-14T03:41:54;4.37;;;2.50;;
7657;SDS011;8462;53.156;8.220;2023-06-14T03:44:21;3.27;;;2.40;;
7657;SDS011;8462;53.156;8.220;2023-06-14T03:46:48;3.77;;;2.43;;
7657;SDS011;8462;53.156;8.220;2023-06-14T03:49:15;3.53;;;2.33;;
7657;SDS011;8462;53.156;8.220;2023-06-14T03:51:44;3.50;;;2.57;;
7657;SDS011;8462;53.156;8.220;2023-06-14T03:54:18;5.47;;;2.63;;
7657;SDS011;8462;53.156;8.220;2023-06-14T03:56:47;4.93;;;3.00;;
7657;SDS011;8462;53.156;8.220;2023-06-14T03:59:14;4.50;;;2.70;;
7657;SDS011;8462;53.156;8.220;2023-06-14T04:01:41;4.00;;;2.30;;
7657;SDS011;8462;53.156;8.220;2023-06-14T04:04:10;3.30;;;2.40;;
7657;SDS011;8462;53.156;8.220;2023-06-14T04:06:37;6.37;;;3.00;;
7657;SDS011;8462;53.156;8.220;2023-06-14T04:09:06;4.67;;;2.63;;
7657;SDS011;8462;53.156;8.220;2023-06-14T04:11:34;3.10;;;2.80;;
7657;SDS011;8462;53.156;8.220;2023-06-14T04:14:03;4.00;;;2.30;;
7657;SDS011;8462;53.156;8.220;2023-06-14T04:16:31;4.50;;;2.50;;
7657;SDS011;8462;53.156;8.220;2023-06-14T04:19:00;4.10;;;2.40;;
7657;SDS011;8462;53.156;8.220;2023-06-14T04:21:27;4.30;;;2.63;;
7657;SDS011;8462;53.156;8.220;2023-06-14T04:23:57;4.70;;;2.83;;
7657;SDS011;8462;53.156;8.220;2023-06-14T04:26:27;5.40;;;2.63;;
7657;SDS011;8462;53.156;8.220;2023-06-14T04:28:56;4.83;;;2.97;;
7657;SDS011;8462;53.156;8.220;2023-06-14T04:31:31;3.57;;;2.33;;
7657;SDS011;8462;53.156;8.220;2023-06-14T04:33:59;6.13;;;2.83;;
7657;SDS011;8462;53.156;8.220;2023-06-14T04:36:26;3.73;;;2.57;;
7657;SDS011;8462;53.156;8.220;2023-06-14T04:38:53;5.20;;;2.83;;
7657;SDS011;8462;53.156;8.220;2023-06-14T04:41:22;4.50;;;2.73;;
7657;SDS011;8462;53.156;8.220;2023-06-14T04:43:54;5.97;;;2.70;;
7657;SDS011;8462;53.156;8.220;2023-06-14T04:46:24;2.87;;;2.40;;
7657;SDS011;8462;53.156;8.220;2023-06-14T04:48:56;6.80;;;3.30;;
7657;SDS011;8462;53.156;8.220;2023-06-14T04:51:22;5.07;;;2.93;;
7657;SDS011;8462;53.156;8.220;2023-06-14T04:53:55;5.00;;;2.63;;
7657;SDS011;8462;53.156;8.220;2023-06-14T04:56:24;3.07;;;2.20;;
7657;SDS011;8462;53.156;8.220;2023-06-14T04:58:52;4.47;;;2.60;;
7657;SDS011;8462;53.156;8.220;2023-06-14T05:01:21;3.80;;;2.37;;
7657;SDS011;8462;53.156;8.220;2023-06-14T05:03:49;3.77;;;2.60;;
7657;SDS011;8462;53.156;8.220;2023-06-14T05:06:18;2.13;;;1.93;;
7657;SDS011;8462;53.156;8.220;2023-06-14T05:08:45;4.87;;;2.47;;
7657;SDS011;8462;53.156;8.220;2023-06-14T05:11:13;5.87;;;2.67;;
7657;SDS011;8462;53.156;8.220;2023-06-14T05:13:40;3.07;;;2.47;;
7657;SDS011;8462;53.156;8.220;2023-06-14T05:16:10;3.47;;;2.47;;
7657;SDS011;8462;53.156;8.220;2023-06-14T05:18:37;4.07;;;2.93;;
7657;SDS011;8462;53.156;8.220;2023-06-14T05:21:05;4.68;;;2.65;;
7657;SDS011;8462;53.156;8.220;2023-06-14T05:23:33;4.15;;;2.90;;
7657;SDS011;8462;53.156;8.220;2023-06-14T05:26:00;4.45;;;2.85;;
7657;SDS011;8462;53.156;8.220;2023-06-14T05:28:29;4.50;;;2.55;;
7657;SDS011;8462;53.156;8.220;2023-06-14T05:30:56;4.03;;;2.42;;
7657;SDS011;8462;53.156;8.220;2023-06-14T05:33:24;4.00;;;2.75;;
7657;SDS011;8462;53.156;8.220;2023-06-14T05:35:51;4.60;;;2.90;;
7657;SDS011;8462;53.156;8.220;2023-06-14T05:38:18;4.82;;;2.50;;
7657;SDS011;8462;53.156;8.220;2023-06-14T05:40:46;2.78;;;2.25;;
7657;SDS011;8462;53.156;8.220;2023-06-14T05:43:13;5.28;;;2.72;;
7657;SDS011;8462;53.156;8.220;2023-06-14T05:45:40;5.85;;;3.22;;
7657;SDS011;8462;53.156;8.220;2023-06-14T05:48:07;3.88;;;2.47;;
7657;SDS011;8462;53.156;8.220;2023-06-14T05:50:34;7.00;;;3.75;;
7657;SDS011;8462;53.156;8.220;2023-06-14T05:53:01;6.85;;;3.20;;
7657;SDS011;8462;53.156;8.220;2023-06-14T05:55:27;5.85;;;3.05;;
7657;SDS011;8462;53.156;8.220;2023-06-14T05:57:56;2.88;;;2.45;;
7657;SDS011;8462;53.156;8.220;2023-06-14T06:00:23;4.18;;;2.53;;
7657;SDS011;8462;53.156;8.220;2023-06-14T06:02:50;3.55;;;2.55;;
7657;SDS011;8462;53.156;8.220;2023-06-14T06:05:16;4.43;;;2.60;;
7657;SDS011;8462;53.156;8.220;2023-06-14T06:07:43;3.13;;;2.78;;
7657;SDS011;8462;53.156;8.220;2023-06-14T06:10:11;4.30;;;2.60;;
7657;SDS011;8462;53.156;8.220;2023-06-14T06:12:37;4.05;;;2.50;;
7657;SDS011;8462;53.156;8.220;2023-06-14T06:15:07;3.53;;;2.60;;
7657;SDS011;8462;53.156;8.220;2023-06-14T06:17:37;6.22;;;2.58;;
7657;SDS011;8462;53.156;8.220;2023-06-14T06:20:04;4.07;;;2.20;;
7657;SDS011;8462;53.156;8.220;2023-06-14T06:22:33;6.03;;;3.10;;
7657;SDS011;8462;53.156;8.220;2023-06-14T06:25:00;7.60;;;4.05;;
7657;SDS011;8462;53.156;8.220;2023-06-14T06:27:28;3.63;;;2.35;;
7657;SDS011;8462;53.156;8.220;2023-06-14T06:29:54;5.82;;;2.58;;
7657;SDS011;8462;53.156;8.220;2023-06-14T06:32:23;3.58;;;2.65;;
7657;SDS011;8462;53.156;8.220;2023-06-14T06:34:50;3.03;;;2.50;;
7657;SDS011;8462;53.156;8.220;2023-06-14T06:37:17;5.10;;;2.45;;
7657;SDS011;8462;53.156;8.220;2023-06-14T06:39:44;3.55;;;2.72;;
7657;SDS011;8462;53.156;8.220;2023-06-14T06:42:11;3.95;;;2.78;;
7657;SDS011;8462;53.156;8.220;2023-06-14T06:44:41;3.40;;;2.47;;
7657;SDS011;8462;53.156;8.220;2023-06-14T06:47:08;3.50;;;2.25;;
7657;SDS011;8462;53.156;8.220;2023-06-14T06:49:37;3.55;;;2.17;;
7657;SDS011;8462;53.156;8.220;2023-06-14T06:52:05;3.42;;;2.38;;
7657;SDS011;8462;53.156;8.220;2023-06-14T06:54:34;6.25;;;2.72;;
7657;SDS011;8462;53.156;8.220;2023-06-14T06:57:01;2.67;;;2.28;;
7657;SDS011;8462;53.156;8.220;2023-06-14T06:59:28;3.88;;;2.00;;
7657;SDS011;8462;53.156;8.220;2023-06-14T07:01:55;2.95;;;2.15;;
7657;SDS011;8462;53.156;8.220;2023-06-14T07:04:22;4.05;;;3.20;;
7657;SDS011;8462;53.156;8.220;2023-06-14T07:06:50;3.33;;;2.30;;
7657;SDS011;8462;53.156;8.220;2023-06-14T07:09:17;3.58;;;2.33;;
7657;SDS011;8462;53.156;8.220;2023-06-14T07:11:45;5.30;;;2.55;;
7657;SDS011;8462;53.156;8.220;2023-06-14T07:14:13;5.28;;;2.60;;
7657;SDS011;8462;53.156;8.220;2023-06-14T07:16:41;2.83;;;2.20;;
7657;SDS011;8462;53.156;8.220;2023-06-14T07:19:08;5.78;;;3.03;;
7657;SDS011;8462;53.156;8.220;2023-06-14T07:21:35;2.78;;;2.30;;
7657;SDS011;8462;53.156;8.220;2023-06-14T07:24:05;4.70;;;2.28;;
7657;SDS011;8462;53.156;8.220;2023-06-14T07:26:33;4.65;;;2.88;;
7657;SDS011;8462;53.156;8.220;2023-06-14T07:29:00;2.67;;;2.20;;
7657;SDS011;8462;53.156;8.220;2023-06-14T07:31:27;5.40;;;2.65;;
7657;SDS011;8462;53.156;8.220;2023-06-14T07:33:55;2.55;;;2.17;;
7657;SDS011;8462;53.156;8.220;2023-06-14T07:36:23;2.90;;;2.42;;
7657;SDS011;8462;53.156;8.220;2023-06-14T07:38:50;4.30;;;2.60;;
7657;SDS011;8462;53.156;8.220;2023-06-14T07:41:19;4.40;;;2.30;;
7657;SDS011;8462;53.156;8.220;2023-06-14T07:43:48;2.50;;;1.85;;
7657;SDS011;8462;53.156;8.220;2023-06-14T07:46:15;5.63;;;2.58;;
7657;SDS011;8462;53.156;8.220;2023-06-14T07:48:42;4.10;;;2.58;;
7657;SDS011;8462;53.156;8.220;2023-06-14T07:51:09;3.05;;;2.05;;
7657;SDS011;8462;53.156;8.220;2023-06-14T07:53:36;4.05;;;2.42;;
7657;SDS011;8462;53.156;8.220;2023-06-14T07:56:03;4.63;;;2.20;;
7657;SDS011;8462;53.156;8.220;2023-06-14T07:58:31;4.13;;;2.17;;
7657;SDS011;8462;53.156;8.220;2023-06-14T08:00:58;4.90;;;2.50;;
7657;SDS011;8462;53.156;8.220;2023-06-14T08:03:28;3.87;;;1.80;;
7657;SDS011;8462;53.156;8.220;2023-06-14T08:05:55;2.17;;;1.90;;
7657;SDS011;8462;53.156;8.220;2023-06-14T08:08:22;3.67;;;2.20;;
7657;SDS011;8462;53.156;8.220;2023-06-14T08:10:50;3.93;;;2.07;;
7657;SDS011;8462;53.156;8.220;2023-06-14T08:13:16;1.63;;;1.53;;
7657;SDS011;8462;53.156;8.220;2023-06-14T08:15:45;2.17;;;1.97;;
7657;SDS011;8462;53.156;8.220;2023-06-14T08:18:12;2.93;;;1.83;;
7657;SDS011;8462;53.156;8.220;2023-06-14T08:20:39;2.47;;;1.60;;
7657;SDS011;8462;53.156;8.220;2023-06-14T08:23:05;2.23;;;1.50;;
7657;SDS011;8462;53.156;8.220;2023-06-14T08:25:33;2.37;;;1.60;;
7657;SDS011;8462;53.156;8.220;2023-06-14T08:28:00;2.77;;;1.60;;
7657;SDS011;8462;53.156;8.220;2023-06-14T08:30:27;3.03;;;1.70;;
7657;SDS011;8462;53.156;8.220;2023-06-14T08:32:55;2.33;;;1.73;;
7657;SDS011;8462;53.156;8.220;2023-06-14T08:35:24;2.80;;;1.67;;
7657;SDS011;8462;53.156;8.220;2023-06-14T08:37:51;1.80;;;1.60;;
7657;SDS011;8462;53.156;8.220;2023-06-14T08:40:20;1.70;;;1.57;;
7657;SDS011;8462;53.156;8.220;2023-06-14T08:42:50;1.50;;;1.20;;
7657;SDS011;8462;53.156;8.220;2023-06-14T08:45:19;1.50;;;1.27;;
7657;SDS011;8462;53.156;8.220;2023-06-14T08:47:47;4.00;;;1.90;;
7657;SDS011;8462;53.156;8.220;2023-06-14T08:50:20;2.17;;;1.97;;
7657;SDS011;8462;53.156;8.220;2023-06-14T08:52:51;1.70;;;1.47;;
7657;SDS011;8462;53.156;8.220;2023-06-14T08:55:22;2.27;;;1.70;;
7657;SDS011;8462;53.156;8.220;2023-06-14T08:57:53;1.77;;;1.60;;
7657;SDS011;8462;53.156;8.220;2023-06-14T09:00:23;2.47;;;1.30;;
7657;SDS011;8462;53.156;8.220;2023-06-14T09:02:50;3.27;;;1.60;;
7657;SDS011;8462;53.156;8.220;2023-06-14T09:05:23;1.73;;;1.60;;
7657;SDS011;8462;53.156;8.220;2023-06-14T09:07:51;2.63;;;1.70;;
7657;SDS011;8462;53.156;8.220;2023-06-14T09:10:20;1.83;;;1.40;;
7657;SDS011;8462;53.156;8.220;2023-06-14T09:12:48;1.53;;;1.20;;
7657;SDS011;8462;53.156;8.220;2023-06-14T09:15:16;1.67;;;1.40;;
7657;SDS011;8462;53.156;8.220;2023-06-14T09:17:43;1.13;;;1.03;;
7657;SDS011;8462;53.156;8.220;2023-06-14T09:20:10;2.73;;;1.67;;
7657;SDS011;8462;53.156;8.220;2023-06-14T09:22:40;3.00;;;1.70;;
7657;SDS011;8462;53.156;8.220;2023-06-14T09:25:07;2.57;;;1.80;;
7657;SDS011;8462;53.156;8.220;2023-06-14T09:27:35;1.63;;;1.40;;
7657;SDS011;8462;53.156;8.220;2023-06-14T09:30:05;2.77;;;1.40;;
7657;SDS011;8462;53.156;8.220;2023-06-14T09:32:36;2.10;;;1.57;;
7657;SDS011;8462;53.156;8.220;2023-06-14T09:35:04;1.30;;;1.20;;
7657;SDS011;8462;53.156;8.220;2023-06-14T09:37:33;3.87;;;1.60;;
7657;SDS011;8462;53.156;8.220;2023-06-14T09:40:02;1.93;;;1.77;;
7657;SDS011;8462;53.156;8.220;2023-06-14T09:42:30;1.13;;;1.00;;
7657;SDS011;8462;53.156;8.220;2023-06-14T09:45:07;2.33;;;1.53;;
7657;SDS011;8462;53.156;8.220;2023-06-14T09:47:36;3.07;;;1.70;;
7657;SDS011;8462;53.156;8.220;2023-06-14T09:50:06;1.60;;;1.40;;
7657;SDS011;8462;53.156;8.220;2023-06-14T09:52:34;1.50;;;1.40;;
7657;SDS011;8462;53.156;8.220;2023-06-14T09:55:06;2.73;;;1.73;;
7657;SDS011;8462;53.156;8.220;2023-06-14T09:57:41;2.03;;;1.37;;
7657;SDS011;8462;53.156;8.220;2023-06-14T10:00:12;1.90;;;1.70;;
7657;SDS011;8462;53.156;8.220;2023-06-14T10:02:41;2.97;;;1.83;;
7657;SDS011;8462;53.156;8.220;2023-06-14T10:05:16;2.03;;;1.53;;
7657;SDS011;8462;53.156;8.220;2023-06-14T10:07:48;3.33;;;1.67;;
7657;SDS011;8462;53.156;8.220;2023-06-14T10:10:20;1.50;;;1.40;;
7657;SDS011;8462;53.156;8.220;2023-06-14T10:12:47;3.10;;;1.50;;
7657;SDS011;8462;53.156;8.220;2023-06-14T10:15:17;1.70;;;1.43;;
7657;SDS011;8462;53.156;8.220;2023-06-14T10:17:47;2.10;;;1.23;;
7657;SDS011;8462;53.156;8.220;2023-06-14T10:20:26;2.40;;;1.40;;
7657;SDS011;8462;53.156;8.220;2023-06-14T10:23:02;3.90;;;1.77;;
7657;SDS011;8462;53.156;8.220;2023-06-14T10:25:35;2.20;;;1.47;;
7657;SDS011;8462;53.156;8.220;2023-06-14T10:28:03;1.50;;;1.23;;
7657;SDS011;8462;53.156;8.220;2023-06-14T10:30:54;1.40;;;1.30;;
7657;SDS011;8462;53.156;8.220;2023-06-14T10:33:29;3.33;;;1.70;;
7657;SDS011;8462;53.156;8.220;2023-06-14T10:36:06;1.73;;;1.23;;
7657;SDS011;8462;53.156;8.220;2023-06-14T10:38:56;2.63;;;1.10;;
7657;SDS011;8462;53.156;8.220;2023-06-14T10:41:25;2.27;;;1.50;;
7657;SDS011;8462;53.156;8.220;2023-06-14T10:46:54;5.03;;;1.83;;
7657;SDS011;8462;53.156;8.220;2023-06-14T10:49:36;1.80;;;1.67;;
7657;SDS011;8462;53.156;8.220;2023-06-14T10:52:08;2.00;;;1.70;;
7657;SDS011;8462;53.156;8.220;2023-06-14T10:54:58;2.90;;;1.60;;
7657;SDS011;8462;53.156;8.220;2023-06-14T10:57:28;2.03;;;1.60;;
7657;SDS011;8462;53.156;8.220;2023-06-14T10:59:56;2.17;;;1.70;;
7657;SDS011;8462;53.156;8.220;2023-06-14T11:02:43;2.07;;;1.70;;
7657;SDS011;8462;53.156;8.220;2023-06-14T11:05:26;2.70;;;1.70;;
7657;SDS011;8462;53.156;8.220;2023-06-14T11:10:51;1.80;;;1.50;;
7657;SDS011;8462;53.156;8.220;2023-06-14T11:13:22;1.50;;;1.40;;
7657;SDS011;8462;53.156;8.220;2023-06-14T11:15:52;3.60;;;2.20;;
7657;SDS011;8462;53.156;8.220;2023-06-14T11:18:22;1.63;;;1.50;;
7657;SDS011;8462;53.156;8.220;2023-06-14T11:20:52;1.77;;;1.53;;
7657;SDS011;8462;53.156;8.220;2023-06-14T11:23:20;2.10;;;1.90;;
7657;SDS011;8462;53.156;8.220;2023-06-14T11:25:49;2.97;;;1.90;;
7657;SDS011;8462;53.156;8.220;2023-06-14T11:28:16;1.73;;;1.63;;
7657;SDS011;8462;53.156;8.220;2023-06-14T11:30:46;5.27;;;1.83;;
7657;SDS011;8462;53.156;8.220;2023-06-14T11:33:16;4.27;;;1.67;;
7657;SDS011;8462;53.156;8.220;2023-06-14T11:35:44;2.30;;;1.80;;
7657;SDS011;8462;53.156;8.220;2023-06-14T11:38:11;1.63;;;1.53;;
7657;SDS011;8462;53.156;8.220;2023-06-14T11:40:39;2.60;;;1.80;;
7657;SDS011;8462;53.156;8.220;2023-06-14T11:43:07;3.87;;;1.60;;
7657;SDS011;8462;53.156;8.220;2023-06-14T11:45:34;3.87;;;1.80;;
7657;SDS011;8462;53.156;8.220;2023-06-14T11:48:04;2.83;;;1.70;;
7657;SDS011;8462;53.156;8.220;2023-06-14T11:50:32;2.03;;;1.87;;
7657;SDS011;8462;53.156;8.220;2023-06-14T11:53:06;4.80;;;2.00;;
7657;SDS011;8462;53.156;8.220;2023-06-14T11:55:35;5.83;;;1.90;;
7657;SDS011;8462;53.156;8.220;2023-06-14T11:58:03;3.60;;;1.87;;
7657;SDS011;8462;53.156;8.220;2023-06-14T12:00:30;4.10;;;1.70;;
7657;SDS011;8462;53.156;8.220;2023-06-14T12:02:57;1.70;;;1.38;;
7657;SDS011;8462;53.156;8.220;2023-06-14T12:05:27;1.70;;;1.60;;
7657;SDS011;8462;53.156;8.220;2023-06-14T12:07:58;4.70;;;1.83;;
7657;SDS011;8462;53.156;8.220;2023-06-14T12:10:27;3.45;;;2.20;;
7657;SDS011;8462;53.156;8.220;2023-06-14T12:12:56;3.55;;;2.40;;
7657;SDS011;8462;53.156;8.220;2023-06-14T12:15:24;2.67;;;2.20;;
7657;SDS011;8462;53.156;8.220;2023-06-14T12:17:55;2.40;;;2.00;;
7657;SDS011;8462;53.156;8.220;2023-06-14T12:20:22;2.95;;;2.42;;
7657;SDS011;8462;53.156;8.220;2023-06-14T12:22:54;2.95;;;2.00;;
7657;SDS011;8462;53.156;8.220;2023-06-14T12:25:26;2.17;;;1.90;;
7657;SDS011;8462;53.156;8.220;2023-06-14T12:27:56;3.67;;;1.98;;
7657;SDS011;8462;53.156;8.220;2023-06-14T12:30:23;2.05;;;1.67;;
7657;SDS011;8462;53.156;8.220;2023-06-14T12:32:50;1.88;;;1.52;;
7657;SDS011;8462;53.156;8.220;2023-06-14T12:35:17;2.33;;;2.00;;
7657;SDS011;8462;53.156;8.220;2023-06-14T12:37:45;2.30;;;2.08;;
7657;SDS011;8462;53.156;8.220;2023-06-14T12:40:13;2.22;;;1.80;;
7657;SDS011;8462;53.156;8.220;2023-06-14T12:42:40;3.15;;;1.90;;
7657;SDS011;8462;53.156;8.220;2023-06-14T12:45:08;1.75;;;1.50;;
7657;SDS011;8462;53.156;8.220;2023-06-14T12:47:35;6.57;;;3.17;;
7657;SDS011;8462;53.156;8.220;2023-06-14T12:50:03;3.58;;;1.75;;
7657;SDS011;8462;53.156;8.220;2023-06-14T12:52:31;2.70;;;1.88;;
7657;SDS011;8462;53.156;8.220;2023-06-14T12:55:01;2.17;;;1.67;;
7657;SDS011;8462;53.156;8.220;2023-06-14T12:57:30;1.65;;;1.55;;
7657;SDS011;8462;53.156;8.220;2023-06-14T12:59:59;3.38;;;2.13;;
7657;SDS011;8462;53.156;8.220;2023-06-14T13:02:27;2.90;;;1.83;;
7657;SDS011;8462;53.156;8.220;2023-06-14T13:04:54;3.67;;;2.00;;
7657;SDS011;8462;53.156;8.220;2023-06-14T13:07:23;1.75;;;1.65;;
7657;SDS011;8462;53.156;8.220;2023-06-14T13:09:50;2.92;;;2.53;;
7657;SDS011;8462;53.156;8.220;2023-06-14T13:12:17;2.00;;;1.90;;
7657;SDS011;8462;53.156;8.220;2023-06-14T13:14:46;3.60;;;1.90;;
7657;SDS011;8462;53.156;8.220;2023-06-14T13:17:13;3.70;;;2.30;;
7657;SDS011;8462;53.156;8.220;2023-06-14T13:19:40;3.73;;;2.00;;
7657;SDS011;8462;53.156;8.220;2023-06-14T13:22:10;3.07;;;2.30;;
7657;SDS011;8462;53.156;8.220;2023-06-14T13:24:37;2.37;;;2.13;;
7657;SDS011;8462;53.156;8.220;2023-06-14T13:27:04;2.30;;;1.70;;
7657;SDS011;8462;53.156;8.220;2023-06-14T13:29:31;3.33;;;2.20;;
7657;SDS011;8462;53.156;8.220;2023-06-14T13:32:03;3.30;;;2.20;;
7657;SDS011;8462;53.156;8.220;2023-06-14T13:34:31;2.63;;;2.03;;
7657;SDS011;8462;53.156;8.220;2023-06-14T13:36:57;3.63;;;2.42;;
7657;SDS011;8462;53.156;8.220;2023-06-14T13:39:25;2.58;;;1.80;;
7657;SDS011;8462;53.156;8.220;2023-06-14T13:41:52;5.55;;;2.10;;
7657;SDS011;8462;53.156;8.220;2023-06-14T13:44:20;3.63;;;2.38;;
7657;SDS011;8462;53.156;8.220;2023-06-14T13:46:50;3.22;;;1.73;;
7657;SDS011;8462;53.156;8.220;2023-06-14T13:49:19;2.88;;;1.90;;
7657;SDS011;8462;53.156;8.220;2023-06-14T13:51:47;2.20;;;2.00;;
7657;SDS011;8462;53.156;8.220;2023-06-14T13:54:14;3.58;;;1.73;;
7657;SDS011;8462;53.156;8.220;2023-06-14T13:56:41;2.38;;;2.17;;
7657;SDS011;8462;53.156;8.220;2023-06-14T13:59:08;2.95;;;2.35;;
7657;SDS011;8462;53.156;8.220;2023-06-14T14:01:36;2.50;;;2.10;;
7657;SDS011;8462;53.156;8.220;2023-06-14T14:04:03;5.00;;;2.40;;
7657;SDS011;8462;53.156;8.220;2023-06-14T14:06:31;3.17;;;2.05;;
7657;SDS011;8462;53.156;8.220;2023-06-14T14:08:58;2.75;;;2.20;;
7657;SDS011;8462;53.156;8.220;2023-06-14T14:11:27;3.38;;;2.38;;
7657;SDS011;8462;53.156;8.220;2023-06-14T14:13:58;2.08;;;1.85;;
7657;SDS011;8462;53.156;8.220;2023-06-14T14:16:25;3.10;;;2.05;;
7657;SDS011;8462;53.156;8.220;2023-06-14T14:18:52;5.25;;;2.78;;
7657;SDS011;8462;53.156;8.220;2023-06-14T14:21:20;2.75;;;1.98;;
7657;SDS011;8462;53.156;8.220;2023-06-14T14:23:49;5.63;;;2.17;;
7657;SDS011;8462;53.156;8.220;2023-06-14T14:26:16;4.00;;;1.73;;
7657;SDS011;8462;53.156;8.220;2023-06-14T14:28:43;2.85;;;2.08;;
7657;SDS011;8462;53.156;8.220;2023-06-14T14:31:11;5.00;;;1.90;;
7657;SDS011;8462;53.156;8.220;2023-06-14T14:33:38;4.00;;;2.08;;
7657;SDS011;8462;53.156;8.220;2023-06-14T14:36:05;2.10;;;1.90;;
7657;SDS011;8462;53.156;8.220;2023-06-14T14:38:32;7.28;;;2.30;;
7657;SDS011;8462;53.156;8.220;2023-06-14T14:41:01;2.85;;;2.08;;
7657;SDS011;8462;53.156;8.220;2023-06-14T14:43:28;2.30;;;2.05;;
7657;SDS011;8462;53.156;8.220;2023-06-14T14:45:57;4.82;;;2.33;;
7657;SDS011;8462;53.156;8.220;2023-06-14T14:48:24;4.25;;;2.20;;
7657;SDS011;8462;53.156;8.220;2023-06-14T14:50:52;2.72;;;2.03;;
7657;SDS011;8462;53.156;8.220;2023-06-14T14:53:19;2.85;;;2.08;;
7657;SDS011;8462;53.156;8.220;2023-06-14T14:55:46;5.68;;;1.90;;
7657;SDS011;8462;53.156;8.220;2023-06-14T14:58:14;3.50;;;2.20;;
7657;SDS011;8462;53.156;8.220;2023-06-14T15:00:43;5.72;;;2.15;;
7657;SDS011;8462;53.156;8.220;2023-06-14T15:03:10;2.67;;;1.90;;
7657;SDS011;8462;53.156;8.220;2023-06-14T15:05:37;2.50;;;1.65;;
7657;SDS011;8462;53.156;8.220;2023-06-14T15:08:04;2.53;;;2.17;;
7657;SDS011;8462;53.156;8.220;2023-06-14T15:10:35;3.92;;;2.75;;
7657;SDS011;8462;53.156;8.220;2023-06-14T15:13:02;3.35;;;1.88;;
7657;SDS011;8462;53.156;8.220;2023-06-14T15:15:31;3.03;;;2.30;;
7657;SDS011;8462;53.156;8.220;2023-06-14T15:17:58;3.88;;;2.38;;
7657;SDS011;8462;53.156;8.220;2023-06-14T15:20:25;3.00;;;2.10;;
7657;SDS011;8462;53.156;8.220;2023-06-14T15:22:53;2.47;;;1.98;;
7657;SDS011;8462;53.156;8.220;2023-06-14T15:25:24;3.83;;;1.73;;
7657;SDS011;8462;53.156;8.220;2023-06-14T15:27:51;2.42;;;2.10;;
7657;SDS011;8462;53.156;8.220;2023-06-14T15:30:19;3.22;;;2.10;;